createdAt,value
2018-05-06T00:00:00.173Z,1019.71
2018-05-06T00:00:59.324Z,1019.69
2018-05-06T00:01:59.341Z,1019.73
2018-05-06T00:02:59.310Z,1019.73
2018-05-06T00:03:59.308Z,1019.70
2018-05-06T00:04:59.333Z,1019.69
2018-05-06T00:05:59.278Z,1019.73
2018-05-06T00:06:59.288Z,1019.71
2018-05-06T00:07:59.317Z,1019.67
2018-05-06T00:08:59.550Z,1019.69
2018-05-06T00:09:59.312Z,1019.70
2018-05-06T00:10:59.343Z,1019.73
2018-05-06T00:11:59.315Z,1019.71
2018-05-06T00:12:59.330Z,1019.74
2018-05-06T00:13:59.311Z,1019.76
2018-05-06T00:14:59.327Z,1019.77
2018-05-06T00:15:59.313Z,1019.74
2018-05-06T00:16:59.320Z,1019.77
2018-05-06T00:17:59.351Z,1019.74
2018-05-06T00:18:59.326Z,1019.74
2018-05-06T00:19:59.338Z,1019.73
2018-05-06T00:20:59.383Z,1019.70
2018-05-06T00:21:59.368Z,1019.73
2018-05-06T00:22:59.331Z,1019.69
2018-05-06T00:23:59.374Z,1019.70
2018-05-06T00:24:59.355Z,1019.69
2018-05-06T00:25:59.378Z,1019.67
2018-05-06T00:26:59.341Z,1019.64
2018-05-06T00:27:59.389Z,1019.65
2018-05-06T00:28:59.390Z,1019.66
2018-05-06T00:29:59.364Z,1019.67
2018-05-06T00:30:59.440Z,1019.70
2018-05-06T00:31:59.397Z,1019.67
2018-05-06T00:32:59.372Z,1019.71
2018-05-06T00:34:00.175Z,1019.73
2018-05-06T00:34:59.388Z,1019.72
2018-05-06T00:35:59.852Z,1019.75
2018-05-06T00:36:59.458Z,1019.69
2018-05-06T00:37:59.412Z,1019.70
2018-05-06T00:38:59.406Z,1019.71
2018-05-06T00:40:00.178Z,1019.70
2018-05-06T00:40:59.392Z,1019.72
2018-05-06T00:41:59.428Z,1019.66
2018-05-06T00:42:59.417Z,1019.66
2018-05-06T00:43:59.483Z,1019.63
2018-05-06T00:44:59.423Z,1019.60
2018-05-06T00:45:59.404Z,1019.63
2018-05-06T00:47:00.182Z,1019.63
2018-05-06T00:47:59.416Z,1019.61
2018-05-06T00:48:59.559Z,1019.57
2018-05-06T00:49:59.431Z,1019.56
2018-05-06T00:50:59.464Z,1019.57
2018-05-06T00:51:59.431Z,1019.57
2018-05-06T00:52:59.420Z,1019.55
2018-05-06T00:53:59.457Z,1019.56
2018-05-06T00:54:59.456Z,1019.57
2018-05-06T00:55:59.453Z,1019.56
2018-05-06T00:56:59.425Z,1019.57
2018-05-06T00:57:59.421Z,1019.57
2018-05-06T00:58:59.433Z,1019.58
2018-05-06T00:59:59.463Z,1019.58
2018-05-06T01:00:59.454Z,1019.57
2018-05-06T01:01:59.494Z,1019.59
2018-05-06T01:02:59.466Z,1019.62
2018-05-06T01:03:59.464Z,1019.59
2018-05-06T01:04:59.475Z,1019.61
2018-05-06T01:05:59.447Z,1019.62
2018-05-06T01:06:59.471Z,1019.60
2018-05-06T01:07:59.460Z,1019.63
2018-05-06T01:08:59.461Z,1019.63
2018-05-06T01:09:59.476Z,1019.63
2018-05-06T01:10:59.481Z,1019.64
2018-05-06T01:11:59.520Z,1019.64
2018-05-06T01:12:59.454Z,1019.63
2018-05-06T01:13:59.485Z,1019.69
2018-05-06T01:14:59.491Z,1019.62
2018-05-06T01:15:59.498Z,1019.65
2018-05-06T01:16:59.533Z,1019.63
2018-05-06T01:17:59.486Z,1019.64
2018-05-06T01:18:59.481Z,1019.65
2018-05-06T01:19:59.509Z,1019.67
2018-05-06T01:20:59.489Z,1019.64
2018-05-06T01:21:59.472Z,1019.66
2018-05-06T01:22:59.496Z,1019.62
2018-05-06T01:23:59.465Z,1019.61
2018-05-06T01:24:59.536Z,1019.61
2018-05-06T01:25:59.483Z,1019.66
2018-05-06T01:27:00.190Z,1019.57
2018-05-06T01:28:00.196Z,1019.60
2018-05-06T01:28:59.542Z,1019.62
2018-05-06T01:29:59.906Z,1019.57
2018-05-06T01:30:59.625Z,1019.58
2018-05-06T01:32:01.037Z,1019.61
2018-05-06T01:33:01.414Z,1019.61
2018-05-06T01:34:03.101Z,1019.59
2018-05-06T01:34:59.609Z,1019.60
2018-05-06T01:35:59.596Z,1019.59
2018-05-06T01:36:59.595Z,1019.54
2018-05-06T01:37:59.977Z,1019.59
2018-05-06T01:38:59.514Z,1019.58
2018-05-06T01:39:59.515Z,1019.60
2018-05-06T01:41:00.205Z,1019.58
2018-05-06T01:41:59.557Z,1019.53
2018-05-06T01:42:59.543Z,1019.49
2018-05-06T01:43:59.569Z,1019.53
2018-05-06T01:44:59.570Z,1019.43
2018-05-06T01:45:59.573Z,1019.47
2018-05-06T01:46:59.562Z,1019.49
2018-05-06T01:47:59.538Z,1019.50
2018-05-06T01:48:59.576Z,1019.48
2018-05-06T01:49:59.577Z,1019.50
2018-05-06T01:50:59.545Z,1019.44
2018-05-06T01:51:59.596Z,1019.44
2018-05-06T01:52:59.596Z,1019.45
2018-05-06T01:53:59.557Z,1019.44
2018-05-06T01:54:59.547Z,1019.46
2018-05-06T01:55:59.585Z,1019.41
2018-05-06T01:56:59.548Z,1019.44
2018-05-06T01:57:59.573Z,1019.45
2018-05-06T01:58:59.609Z,1019.45
2018-05-06T01:59:59.601Z,1019.49
2018-05-06T02:00:59.601Z,1019.49
2018-05-06T02:01:59.614Z,1019.48
2018-05-06T02:02:59.564Z,1019.47
2018-05-06T02:03:59.603Z,1019.48
2018-05-06T02:04:59.578Z,1019.51
2018-05-06T02:05:59.599Z,1019.52
2018-05-06T02:06:59.573Z,1019.53
2018-05-06T02:07:59.563Z,1019.54
2018-05-06T02:08:59.619Z,1019.56
2018-05-06T02:09:59.632Z,1019.57
2018-05-06T02:10:59.610Z,1019.53
2018-05-06T02:11:59.672Z,1019.55
2018-05-06T02:12:59.582Z,1019.56
2018-05-06T02:13:59.602Z,1019.55
2018-05-06T02:14:59.579Z,1019.54
2018-05-06T02:15:59.660Z,1019.53
2018-05-06T02:16:59.583Z,1019.53
2018-05-06T02:17:59.617Z,1019.50
2018-05-06T02:18:59.600Z,1019.51
2018-05-06T02:19:59.626Z,1019.47
2018-05-06T02:20:59.636Z,1019.51
2018-05-06T02:21:59.626Z,1019.50
2018-05-06T02:22:59.613Z,1019.48
2018-05-06T02:23:59.624Z,1019.49
2018-05-06T02:24:59.670Z,1019.49
2018-05-06T02:25:59.658Z,1019.49
2018-05-06T02:26:59.623Z,1019.51
2018-05-06T02:27:59.617Z,1019.50
2018-05-06T02:28:59.617Z,1019.48
2018-05-06T02:29:59.652Z,1019.50
2018-05-06T02:30:59.672Z,1019.48
2018-05-06T02:31:59.664Z,1019.50
2018-05-06T02:32:59.618Z,1019.51
2018-05-06T02:33:59.679Z,1019.53
2018-05-06T02:34:59.706Z,1019.53
2018-05-06T02:35:59.706Z,1019.49
2018-05-06T02:36:59.684Z,1019.50
2018-05-06T02:37:59.855Z,1019.54
2018-05-06T02:38:59.645Z,1019.54
2018-05-06T02:39:59.652Z,1019.50
2018-05-06T02:40:59.638Z,1019.50
2018-05-06T02:41:59.703Z,1019.50
2018-05-06T02:42:59.683Z,1019.47
2018-05-06T02:43:59.665Z,1019.52
2018-05-06T02:44:59.648Z,1019.54
2018-05-06T02:45:59.694Z,1019.53
2018-05-06T02:46:59.652Z,1019.51
2018-05-06T02:47:59.895Z,1019.53
2018-05-06T02:48:59.685Z,1019.54
2018-05-06T02:49:59.694Z,1019.47
2018-05-06T02:50:59.754Z,1019.50
2018-05-06T02:51:59.715Z,1019.49
2018-05-06T02:52:59.684Z,1019.49
2018-05-06T02:53:59.717Z,1019.51
2018-05-06T02:54:59.700Z,1019.52
2018-05-06T02:55:59.686Z,1019.51
2018-05-06T02:56:59.697Z,1019.57
2018-05-06T02:57:59.694Z,1019.54
2018-05-06T02:58:59.703Z,1019.57
2018-05-06T02:59:59.706Z,1019.56
2018-05-06T03:00:59.703Z,1019.55
2018-05-06T03:01:59.699Z,1019.56
2018-05-06T03:02:59.735Z,1019.56
2018-05-06T03:03:59.740Z,1019.55
2018-05-06T03:04:59.713Z,1019.55
2018-05-06T03:05:59.729Z,1019.54
2018-05-06T03:06:59.728Z,1019.54
2018-05-06T03:07:59.703Z,1019.52
2018-05-06T03:08:59.708Z,1019.47
2018-05-06T03:09:59.740Z,1019.48
2018-05-06T03:10:59.706Z,1019.46
2018-05-06T03:11:59.892Z,1019.46
2018-05-06T03:12:59.712Z,1019.46
2018-05-06T03:13:59.767Z,1019.40
2018-05-06T03:14:59.737Z,1019.38
2018-05-06T03:15:59.814Z,1019.42
2018-05-06T03:16:59.745Z,1019.41
2018-05-06T03:17:59.738Z,1019.42
2018-05-06T03:18:59.740Z,1019.42
2018-05-06T03:19:59.736Z,1019.39
2018-05-06T03:20:59.777Z,1019.37
2018-05-06T03:21:59.745Z,1019.38
2018-05-06T03:22:59.738Z,1019.37
2018-05-06T03:23:59.741Z,1019.37
2018-05-06T03:24:59.757Z,1019.36
2018-05-06T03:25:59.767Z,1019.35
2018-05-06T03:26:59.783Z,1019.39
2018-05-06T03:27:59.773Z,1019.36
2018-05-06T03:28:59.774Z,1019.31
2018-05-06T03:29:59.758Z,1019.34
2018-05-06T03:30:59.818Z,1019.34
2018-05-06T03:31:59.841Z,1019.33
2018-05-06T03:32:59.764Z,1019.34
2018-05-06T03:33:59.809Z,1019.34
2018-05-06T03:34:59.745Z,1019.35
2018-05-06T03:35:59.821Z,1019.35
2018-05-06T03:36:59.811Z,1019.31
2018-05-06T03:37:59.800Z,1019.34
2018-05-06T03:39:00.224Z,1019.33
2018-05-06T03:39:59.779Z,1019.29
2018-05-06T03:40:59.796Z,1019.32
2018-05-06T03:41:59.760Z,1019.31
2018-05-06T03:42:59.809Z,1019.30
2018-05-06T03:43:59.792Z,1019.30
2018-05-06T03:44:59.758Z,1019.30
2018-05-06T03:45:59.813Z,1019.28
2018-05-06T03:46:59.805Z,1019.25
2018-05-06T03:47:59.761Z,1019.29
2018-05-06T03:48:59.812Z,1019.29
2018-05-06T03:49:59.835Z,1019.23
2018-05-06T03:50:59.768Z,1019.25
2018-05-06T03:51:59.787Z,1019.27
2018-05-06T03:52:59.809Z,1019.20
2018-05-06T03:53:59.812Z,1019.21
2018-05-06T03:54:59.851Z,1019.23
2018-05-06T03:55:59.806Z,1019.25
2018-05-06T03:56:59.806Z,1019.25
2018-05-06T03:57:59.821Z,1019.22
2018-05-06T03:58:59.810Z,1019.20
2018-05-06T03:59:59.819Z,1019.23
2018-05-06T04:00:59.821Z,1019.17
2018-05-06T04:01:59.810Z,1019.25
2018-05-06T04:02:59.831Z,1019.16
2018-05-06T04:03:59.803Z,1019.17
2018-05-06T04:04:59.863Z,1019.17
2018-05-06T04:05:59.798Z,1019.19
2018-05-06T04:06:59.804Z,1019.19
2018-05-06T04:07:59.860Z,1019.16
2018-05-06T04:08:59.996Z,1019.13
2018-05-06T04:09:59.904Z,1019.17
2018-05-06T04:10:59.850Z,1019.17
2018-05-06T04:11:59.859Z,1019.18
2018-05-06T04:12:59.890Z,1019.16
2018-05-06T04:13:59.900Z,1019.23
2018-05-06T04:14:59.835Z,1019.16
2018-05-06T04:15:59.833Z,1019.20
2018-05-06T04:16:59.840Z,1019.18
2018-05-06T04:17:59.831Z,1019.19
2018-05-06T04:18:59.859Z,1019.19
2018-05-06T04:19:59.814Z,1019.22
2018-05-06T04:20:59.821Z,1019.23
2018-05-06T04:21:59.865Z,1019.19
2018-05-06T04:22:59.891Z,1019.23
2018-05-06T04:23:59.885Z,1019.20
2018-05-06T04:24:59.844Z,1019.25
2018-05-06T04:25:59.861Z,1019.28
2018-05-06T04:26:59.893Z,1019.27
2018-05-06T04:27:59.841Z,1019.28
2018-05-06T04:28:59.874Z,1019.31
2018-05-06T04:30:00.743Z,1019.27
2018-05-06T04:30:59.902Z,1019.27
2018-05-06T04:31:59.877Z,1019.28
2018-05-06T04:32:59.867Z,1019.31
2018-05-06T04:33:59.867Z,1019.29
2018-05-06T04:34:59.885Z,1019.30
2018-05-06T04:35:59.888Z,1019.30
2018-05-06T04:36:59.894Z,1019.33
2018-05-06T04:37:59.952Z,1019.33
2018-05-06T04:38:59.893Z,1019.36
2018-05-06T04:39:59.908Z,1019.34
2018-05-06T04:40:59.939Z,1019.32
2018-05-06T04:41:59.912Z,1019.34
2018-05-06T04:43:00.010Z,1019.35
2018-05-06T04:43:59.902Z,1019.30
2018-05-06T04:44:59.924Z,1019.34
2018-05-06T04:45:59.953Z,1019.32
2018-05-06T04:46:59.952Z,1019.33
2018-05-06T04:47:59.942Z,1019.32
2018-05-06T04:48:59.870Z,1019.37
2018-05-06T04:49:59.920Z,1019.36
2018-05-06T04:50:59.924Z,1019.36
2018-05-06T04:51:59.961Z,1019.36
2018-05-06T04:52:59.918Z,1019.34
2018-05-06T04:53:59.882Z,1019.39
2018-05-06T04:54:59.918Z,1019.35
2018-05-06T04:55:59.938Z,1019.36
2018-05-06T04:56:59.904Z,1019.46
2018-05-06T04:57:59.915Z,1019.43
2018-05-06T04:58:59.891Z,1019.39
2018-05-06T04:59:59.950Z,1019.40
2018-05-06T05:00:59.895Z,1019.41
2018-05-06T05:01:59.960Z,1019.45
2018-05-06T05:02:59.960Z,1019.43
2018-05-06T05:03:59.972Z,1019.46
2018-05-06T05:04:59.937Z,1019.43
2018-05-06T05:05:59.931Z,1019.43
2018-05-06T05:06:59.924Z,1019.44
2018-05-06T05:07:59.928Z,1019.45
2018-05-06T05:08:59.909Z,1019.47
2018-05-06T05:09:59.973Z,1019.47
2018-05-06T05:11:00.007Z,1019.47
2018-05-06T05:11:59.950Z,1019.45
2018-05-06T05:12:59.944Z,1019.50
2018-05-06T05:14:00.750Z,1019.51
2018-05-06T05:14:59.988Z,1019.51
2018-05-06T05:15:59.978Z,1019.54
2018-05-06T05:16:59.996Z,1019.53
2018-05-06T05:18:00.007Z,1019.55
2018-05-06T05:18:59.950Z,1019.55
2018-05-06T05:19:59.925Z,1019.56
2018-05-06T05:20:59.931Z,1019.59
2018-05-06T05:21:59.947Z,1019.59
2018-05-06T05:22:59.949Z,1019.60
2018-05-06T05:23:59.973Z,1019.57
2018-05-06T05:25:00.007Z,1019.58
2018-05-06T05:25:59.967Z,1019.61
2018-05-06T05:27:00.009Z,1019.61
2018-05-06T05:28:00.035Z,1019.61
2018-05-06T05:28:59.967Z,1019.59
2018-05-06T05:29:59.997Z,1019.66
2018-05-06T05:30:59.977Z,1019.73
2018-05-06T05:31:59.973Z,1019.69
2018-05-06T05:32:59.990Z,1019.67
2018-05-06T05:34:00.004Z,1019.67
2018-05-06T05:34:59.999Z,1019.65
2018-05-06T05:36:00.008Z,1019.68
2018-05-06T05:37:00.010Z,1019.67
2018-05-06T05:38:00.004Z,1019.67
2018-05-06T05:39:00.012Z,1019.73
2018-05-06T05:40:00.025Z,1019.72
2018-05-06T05:41:00.023Z,1019.81
2018-05-06T05:42:00.025Z,1019.74
2018-05-06T05:43:00.136Z,1019.76
2018-05-06T05:43:59.985Z,1019.80
2018-05-06T05:45:00.009Z,1019.78
2018-05-06T05:46:00.017Z,1019.89
2018-05-06T05:47:00.023Z,1019.89
2018-05-06T05:48:00.025Z,1019.84
2018-05-06T05:49:00.048Z,1019.88
2018-05-06T05:50:00.760Z,1019.93
2018-05-06T05:51:00.907Z,1020.01
2018-05-06T05:52:00.037Z,1020.10
2018-05-06T05:53:00.110Z,1020.08
2018-05-06T05:54:00.051Z,1020.15
2018-05-06T05:55:00.090Z,1020.15
2018-05-06T05:56:00.015Z,1020.15
2018-05-06T05:57:00.072Z,1020.23
2018-05-06T05:58:00.079Z,1020.23
2018-05-06T05:59:00.064Z,1020.29
2018-05-06T06:00:00.074Z,1020.29
2018-05-06T06:01:00.079Z,1020.35
2018-05-06T06:02:00.093Z,1020.36
2018-05-06T06:03:00.078Z,1020.35
2018-05-06T06:04:00.075Z,1020.45
2018-05-06T06:05:00.098Z,1020.46
2018-05-06T06:06:00.106Z,1020.61
2018-05-06T06:07:00.139Z,1020.70
2018-05-06T06:08:00.159Z,1020.86
2018-05-06T06:09:00.128Z,1020.86
2018-05-06T06:10:00.111Z,1020.95
2018-05-06T06:11:00.148Z,1021.23
2018-05-06T06:12:00.179Z,1021.40
2018-05-06T06:13:00.136Z,1021.43
2018-05-06T06:14:00.145Z,1021.30
2018-05-06T06:15:00.170Z,1021.05
2018-05-06T06:16:00.108Z,1020.98
2018-05-06T06:17:00.168Z,1020.95
2018-05-06T06:18:00.173Z,1020.96
2018-05-06T06:19:00.235Z,1020.88
2018-05-06T06:20:00.137Z,1020.99
2018-05-06T06:21:00.177Z,1020.95
2018-05-06T06:22:00.264Z,1021.00
2018-05-06T06:23:00.239Z,1021.00
2018-05-06T06:24:00.254Z,1020.92
2018-05-06T06:25:00.225Z,1020.87
2018-05-06T06:26:00.208Z,1020.90
2018-05-06T06:27:00.181Z,1020.94
2018-05-06T06:28:00.279Z,1020.92
2018-05-06T06:29:00.209Z,1020.96
2018-05-06T06:30:00.243Z,1021.06
2018-05-06T06:31:00.253Z,1020.91
2018-05-06T06:32:00.251Z,1020.68
2018-05-06T06:33:00.284Z,1020.56
2018-05-06T06:34:00.343Z,1020.73
2018-05-06T06:35:00.298Z,1020.95
2018-05-06T06:36:00.314Z,1021.01
2018-05-06T06:37:00.369Z,1021.04
2018-05-06T06:38:00.344Z,1021.01
2018-05-06T06:39:00.374Z,1021.01
2018-05-06T06:40:00.315Z,1021.10
2018-05-06T06:41:00.343Z,1021.02
2018-05-06T06:42:00.407Z,1021.00
2018-05-06T06:43:00.343Z,1021.00
2018-05-06T06:44:00.352Z,1021.05
2018-05-06T06:45:00.316Z,1021.01
2018-05-06T06:46:00.512Z,1021.05
2018-05-06T06:47:00.377Z,1021.09
2018-05-06T06:48:01.330Z,1021.07
2018-05-06T06:49:00.653Z,1021.08
2018-05-06T06:50:00.380Z,1021.14
2018-05-06T06:51:00.439Z,1021.11
2018-05-06T06:52:00.426Z,1021.14
2018-05-06T06:53:00.422Z,1021.20
2018-05-06T06:54:00.422Z,1021.24
2018-05-06T06:55:00.430Z,1021.35
2018-05-06T06:56:00.471Z,1021.44
2018-05-06T06:57:00.424Z,1021.39
2018-05-06T06:58:00.511Z,1021.45
2018-05-06T06:59:00.473Z,1021.49
2018-05-06T07:00:00.433Z,1021.60
2018-05-06T07:01:00.520Z,1021.70
2018-05-06T07:02:00.531Z,1021.82
2018-05-06T07:03:00.530Z,1021.91
2018-05-06T07:04:00.505Z,1021.93
2018-05-06T07:05:00.627Z,1021.84
2018-05-06T07:06:00.732Z,1021.99
2018-05-06T07:07:00.578Z,1022.20
2018-05-06T07:08:00.512Z,1022.40
2018-05-06T07:09:00.587Z,1022.61
2018-05-06T07:10:00.595Z,1023.02
2018-05-06T07:11:00.864Z,1023.11
2018-05-06T07:12:00.601Z,1022.95
2018-05-06T07:13:00.629Z,1022.60
2018-05-06T07:14:00.723Z,1022.29
2018-05-06T07:15:00.605Z,1022.10
2018-05-06T07:16:00.640Z,1022.12
2018-05-06T07:17:00.709Z,1022.21
2018-05-06T07:18:00.672Z,1022.16
2018-05-06T07:19:00.687Z,1022.28
2018-05-06T07:20:00.735Z,1022.34
2018-05-06T07:21:00.697Z,1022.42
2018-05-06T07:22:00.719Z,1022.52
2018-05-06T07:23:00.799Z,1022.74
2018-05-06T07:24:00.728Z,1022.93
2018-05-06T07:25:00.808Z,1023.50
2018-05-06T07:26:00.811Z,1025.22
2018-05-06T07:27:00.750Z,1026.84
2018-05-06T07:28:00.799Z,1027.47
2018-05-06T07:29:01.315Z,1027.69
2018-05-06T07:30:00.886Z,1029.44
2018-05-06T07:31:00.826Z,1030.98
2018-05-06T07:32:00.823Z,1030.62
2018-05-06T07:33:00.888Z,1031.12
2018-05-06T07:34:00.947Z,1033.02
2018-05-06T07:35:00.815Z,1033.66
2018-05-06T07:36:00.882Z,1034.36
2018-05-06T07:37:00.914Z,1034.41
2018-05-06T07:38:00.878Z,1034.91
2018-05-06T07:39:01.023Z,1034.97
2018-05-06T07:40:00.963Z,1035.04
2018-05-06T07:41:01.050Z,1036.55
2018-05-06T07:42:01.005Z,1035.81
2018-05-06T07:43:01.021Z,1037.20
2018-05-06T07:44:01.040Z,1036.52
2018-05-06T07:45:01.903Z,1037.39
2018-05-06T07:46:01.049Z,1040.71
2018-05-06T07:47:01.026Z,1039.36
2018-05-06T07:48:01.084Z,1037.88
2018-05-06T07:49:01.112Z,1038.13
2018-05-06T07:50:01.077Z,1040.90
2018-05-06T07:51:01.090Z,1041.00
2018-05-06T07:52:01.073Z,1038.69
2018-05-06T07:53:01.097Z,1040.88
2018-05-06T07:54:01.142Z,1043.10
2018-05-06T07:55:01.134Z,1041.38
2018-05-06T07:56:01.126Z,1043.35
2018-05-06T07:57:01.163Z,1043.77
2018-05-06T07:58:01.181Z,1041.04
2018-05-06T07:59:01.160Z,1041.65
2018-05-06T08:00:01.194Z,1043.48
2018-05-06T08:01:01.260Z,1044.15
2018-05-06T08:02:01.283Z,1040.14
2018-05-06T08:03:01.288Z,1038.52
2018-05-06T08:04:01.405Z,1034.19
2018-05-06T08:05:01.265Z,1029.14
2018-05-06T08:06:01.247Z,1026.62
2018-05-06T08:07:01.351Z,1025.39
2018-05-06T08:08:01.319Z,1024.67
2018-05-06T08:09:01.376Z,1024.08
2018-05-06T08:10:01.742Z,1023.70
2018-05-06T08:11:01.427Z,1023.53
2018-05-06T08:12:01.404Z,1023.35
2018-05-06T08:13:01.464Z,1023.21
2018-05-06T08:14:01.496Z,1023.17
2018-05-06T08:15:01.468Z,1023.06
2018-05-06T08:16:01.498Z,1023.02
2018-05-06T08:17:01.491Z,1023.00
2018-05-06T08:18:01.507Z,1022.90
2018-05-06T08:19:01.514Z,1022.91
2018-05-06T08:20:01.491Z,1022.79
2018-05-06T08:21:02.351Z,1022.65
2018-05-06T08:22:01.597Z,1022.63
2018-05-06T08:23:01.588Z,1022.61
2018-05-06T08:24:01.552Z,1022.56
2018-05-06T08:25:01.625Z,1022.50
2018-05-06T08:26:01.596Z,1022.50
2018-05-06T08:27:01.610Z,1022.52
2018-05-06T08:28:01.645Z,1022.48
2018-05-06T08:29:01.705Z,1022.45
2018-05-06T08:30:01.715Z,1022.45
2018-05-06T08:31:01.813Z,1022.43
2018-05-06T08:32:01.708Z,1022.43
2018-05-06T08:33:01.785Z,1022.36
2018-05-06T08:34:01.739Z,1022.34
2018-05-06T08:35:01.834Z,1022.32
2018-05-06T08:36:01.809Z,1022.27
2018-05-06T08:37:01.768Z,1022.27
2018-05-06T08:38:01.821Z,1022.21
2018-05-06T08:39:01.805Z,1022.24
2018-05-06T08:40:01.822Z,1022.17
2018-05-06T08:41:01.853Z,1022.24
2018-05-06T08:42:01.847Z,1022.17
2018-05-06T08:43:02.086Z,1022.18
2018-05-06T08:44:01.961Z,1022.13
2018-05-06T08:45:01.957Z,1022.12
2018-05-06T08:46:01.905Z,1022.05
2018-05-06T08:47:01.993Z,1022.03
2018-05-06T08:48:02.102Z,1022.12
2018-05-06T08:49:02.134Z,1022.14
2018-05-06T08:50:02.025Z,1022.36
2018-05-06T08:51:02.420Z,1022.54
2018-05-06T08:52:02.075Z,1022.70
2018-05-06T08:53:02.025Z,1022.92
2018-05-06T08:54:02.171Z,1022.88
2018-05-06T08:55:02.186Z,1022.76
2018-05-06T08:56:02.214Z,1022.52
2018-05-06T08:57:02.872Z,1022.13
2018-05-06T08:58:02.207Z,1021.83
2018-05-06T08:59:02.335Z,1021.63
2018-05-06T09:00:02.188Z,1021.55
2018-05-06T09:01:02.199Z,1021.50
2018-05-06T09:02:02.285Z,1021.43
2018-05-06T09:03:03.004Z,1021.45
2018-05-06T09:04:02.326Z,1021.47
2018-05-06T09:05:02.298Z,1021.38
2018-05-06T09:06:02.946Z,1021.36
2018-05-06T09:07:02.309Z,1021.32
2018-05-06T09:08:02.421Z,1021.34
2018-05-06T09:09:02.386Z,1021.35
2018-05-06T09:10:02.478Z,1021.38
2018-05-06T09:11:02.390Z,1021.34
2018-05-06T09:12:02.463Z,1021.37
2018-05-06T09:13:02.664Z,1021.27
2018-05-06T09:14:02.631Z,1021.28
2018-05-06T09:15:03.242Z,1021.26
2018-05-06T09:16:02.656Z,1021.28
2018-05-06T09:17:02.967Z,1021.19
2018-05-06T09:18:02.610Z,1021.16
2018-05-06T09:19:04.310Z,1021.14
2018-05-06T09:20:03.337Z,1021.13
2018-05-06T09:21:03.571Z,1021.10
2018-05-06T09:22:02.683Z,1021.15
2018-05-06T09:23:04.629Z,1021.05
2018-05-06T09:24:02.701Z,1021.01
2018-05-06T09:25:04.567Z,1020.96
2018-05-06T09:26:05.620Z,1020.99
2018-05-06T09:27:03.652Z,1020.95
2018-05-06T09:28:02.795Z,1020.99
2018-05-06T09:29:03.009Z,1021.01
2018-05-06T09:30:02.794Z,1020.96
2018-05-06T09:31:02.818Z,1020.93
2018-05-06T09:32:03.615Z,1020.86
2018-05-06T09:33:02.984Z,1020.90
2018-05-06T09:34:02.854Z,1020.99
2018-05-06T09:35:03.057Z,1020.95
2018-05-06T09:36:02.896Z,1020.93
2018-05-06T09:37:02.984Z,1020.98
2018-05-06T09:38:03.045Z,1020.88
2018-05-06T09:39:02.981Z,1020.96
2018-05-06T09:40:02.981Z,1020.91
2018-05-06T09:41:03.041Z,1020.88
2018-05-06T09:42:03.089Z,1020.86
2018-05-06T09:43:03.062Z,1020.86
2018-05-06T09:44:03.435Z,1020.88
2018-05-06T09:45:04.279Z,1020.89
2018-05-06T09:46:03.173Z,1020.86
2018-05-06T09:47:03.237Z,1020.85
2018-05-06T09:48:03.337Z,1020.88
2018-05-06T09:49:04.759Z,1020.92
2018-05-06T09:50:03.423Z,1020.84
2018-05-06T09:51:03.266Z,1020.94
2018-05-06T09:52:03.404Z,1020.90
2018-05-06T09:53:03.281Z,1020.87
2018-05-06T09:54:03.293Z,1020.84
2018-05-06T09:55:03.315Z,1020.84
2018-05-06T09:56:03.344Z,1020.89
2018-05-06T09:57:03.329Z,1021.05
2018-05-06T09:58:03.324Z,1021.18
2018-05-06T09:59:03.485Z,1021.19
2018-05-06T10:00:03.412Z,1021.17
2018-05-06T10:01:06.175Z,1021.11
2018-05-06T10:02:03.605Z,1021.07
2018-05-06T10:03:03.461Z,1021.04
2018-05-06T10:04:03.521Z,1021.00
2018-05-06T10:05:03.566Z,1021.03
2018-05-06T10:06:03.696Z,1021.01
2018-05-06T10:07:03.598Z,1020.94
2018-05-06T10:08:03.589Z,1020.93
2018-05-06T10:09:04.965Z,1020.92
2018-05-06T10:10:03.681Z,1020.92
2018-05-06T10:11:04.604Z,1020.86
2018-05-06T10:12:03.658Z,1020.87
2018-05-06T10:13:03.939Z,1020.85
2018-05-06T10:14:03.755Z,1020.79
2018-05-06T10:15:04.617Z,1020.78
2018-05-06T10:16:03.796Z,1020.91
2018-05-06T10:17:03.922Z,1020.86
2018-05-06T10:18:03.913Z,1020.82
2018-05-06T10:19:04.572Z,1020.84
2018-05-06T10:20:03.928Z,1020.79
2018-05-06T10:21:03.872Z,1020.73
2018-05-06T10:22:03.884Z,1020.72
2018-05-06T10:23:04.582Z,1020.69
2018-05-06T10:24:03.944Z,1020.66
2018-05-06T10:25:04.594Z,1020.74
2018-05-06T10:26:04.030Z,1020.71
2018-05-06T10:27:04.525Z,1020.72
2018-05-06T10:28:04.066Z,1020.63
2018-05-06T10:29:04.621Z,1020.61
2018-05-06T10:30:04.104Z,1020.60
2018-05-06T10:31:05.931Z,1020.61
2018-05-06T10:32:04.099Z,1020.52
2018-05-06T10:33:05.078Z,1020.53
2018-05-06T10:34:04.138Z,1020.53
2018-05-06T10:35:04.143Z,1020.63
2018-05-06T10:36:04.605Z,1020.42
2018-05-06T10:37:04.311Z,1020.41
2018-05-06T10:38:04.265Z,1020.42
2018-05-06T10:39:05.134Z,1020.46
2018-05-06T10:40:05.070Z,1020.44
2018-05-06T10:41:05.122Z,1020.41
2018-05-06T10:42:05.183Z,1020.36
2018-05-06T10:43:05.272Z,1020.38
2018-05-06T10:44:04.833Z,1020.34
2018-05-06T10:45:04.396Z,1020.30
2018-05-06T10:46:04.989Z,1020.21
2018-05-06T10:47:05.234Z,1020.14
2018-05-06T10:48:04.613Z,1020.06
2018-05-06T10:49:04.568Z,1019.99
2018-05-06T10:50:04.638Z,1020.00
2018-05-06T10:51:05.154Z,1019.86
2018-05-06T10:52:04.534Z,1019.73
2018-05-06T10:53:04.578Z,1019.74
2018-05-06T10:54:04.793Z,1019.76
2018-05-06T10:55:04.573Z,1019.75
2018-05-06T10:56:04.566Z,1019.76
2018-05-06T10:57:04.686Z,1019.64
2018-05-06T10:58:04.662Z,1019.67
2018-05-06T10:59:04.665Z,1019.66
2018-05-06T11:00:04.651Z,1019.56
2018-05-06T11:01:04.650Z,1019.64
2018-05-06T11:02:04.713Z,1019.64
2018-05-06T11:03:04.732Z,1019.65
2018-05-06T11:04:04.753Z,1019.54
2018-05-06T11:05:04.743Z,1019.64
2018-05-06T11:06:04.716Z,1019.54
2018-05-06T11:07:04.749Z,1019.47
2018-05-06T11:08:05.459Z,1019.54
2018-05-06T11:09:04.807Z,1019.49
2018-05-06T11:10:04.923Z,1019.47
2018-05-06T11:11:04.829Z,1019.45
2018-05-06T11:12:04.798Z,1019.44
2018-05-06T11:13:04.815Z,1019.37
2018-05-06T11:14:04.866Z,1019.38
2018-05-06T11:15:04.896Z,1019.42
2018-05-06T11:16:04.882Z,1019.27
2018-05-06T11:17:04.879Z,1019.34
2018-05-06T11:18:05.463Z,1019.31
2018-05-06T11:19:04.978Z,1019.36
2018-05-06T11:20:04.927Z,1019.31
2018-05-06T11:21:04.922Z,1019.34
2018-05-06T11:22:04.973Z,1019.37
2018-05-06T11:23:04.943Z,1019.29
2018-05-06T11:24:05.031Z,1019.33
2018-05-06T11:25:04.980Z,1019.32
2018-05-06T11:26:04.981Z,1019.27
2018-05-06T11:27:04.968Z,1019.31
2018-05-06T11:28:04.984Z,1019.25
2018-05-06T11:29:06.608Z,1019.25
2018-05-06T11:30:05.057Z,1019.16
2018-05-06T11:31:05.012Z,1019.26
2018-05-06T11:32:05.056Z,1019.27
2018-05-06T11:33:05.026Z,1019.17
2018-05-06T11:34:05.022Z,1019.21
2018-05-06T11:35:05.057Z,1019.18
2018-05-06T11:36:05.197Z,1019.30
2018-05-06T11:37:05.075Z,1019.22
2018-05-06T11:38:05.096Z,1019.24
2018-05-06T11:39:05.081Z,1019.22
2018-05-06T11:40:05.097Z,1019.16
2018-05-06T11:41:05.145Z,1019.20
2018-05-06T11:42:05.077Z,1019.23
2018-05-06T11:43:05.115Z,1019.14
2018-05-06T11:44:05.113Z,1019.07
2018-05-06T11:45:05.183Z,1019.19
2018-05-06T11:46:05.134Z,1019.15
2018-05-06T11:47:05.149Z,1019.11
2018-05-06T11:48:05.225Z,1019.01
2018-05-06T11:49:05.173Z,1019.05
2018-05-06T11:50:05.169Z,1019.06
2018-05-06T11:51:05.224Z,1019.09
2018-05-06T11:52:05.308Z,1019.18
2018-05-06T11:53:05.218Z,1019.08
2018-05-06T11:54:05.212Z,1019.15
2018-05-06T11:55:05.243Z,1019.09
2018-05-06T11:56:05.198Z,1019.14
2018-05-06T11:57:05.228Z,1019.09
2018-05-06T11:58:05.245Z,1019.14
2018-05-06T11:59:05.335Z,1019.04
2018-05-06T12:00:05.256Z,1019.00
2018-05-06T12:01:05.231Z,1019.10
2018-05-06T12:02:05.265Z,1019.02
2018-05-06T12:03:05.277Z,1018.98
2018-05-06T12:04:05.367Z,1019.11
2018-05-06T12:05:05.356Z,1019.05